createdAt,value
2019-05-30T00:00:24.219Z,4.40
2019-05-30T00:02:53.938Z,4.23
2019-05-30T00:05:22.714Z,5.20
2019-05-30T00:07:51.273Z,4.50
2019-05-30T00:10:19.907Z,4.87
2019-05-30T00:12:48.491Z,4.57
2019-05-30T00:15:17.184Z,5.37
2019-05-30T00:17:45.837Z,5.53
2019-05-30T00:20:14.898Z,4.83
2019-05-30T00:22:43.503Z,4.60
2019-05-30T00:25:12.177Z,5.37
2019-05-30T00:27:40.782Z,5.20
2019-05-30T00:30:24.012Z,5.20
2019-05-30T00:32:39.803Z,5.33
2019-05-30T00:35:08.744Z,5.33
2019-05-30T00:37:37.890Z,5.20
2019-05-30T00:40:08.043Z,5.17
2019-05-30T00:42:39.009Z,5.30
2019-05-30T00:45:20.080Z,5.43
2019-05-30T00:47:38.468Z,5.43
2019-05-30T00:50:07.369Z,5.53
2019-05-30T00:52:35.951Z,4.90
2019-05-30T00:55:07.019Z,5.70
2019-05-30T00:57:35.897Z,5.13
2019-05-30T01:00:08.929Z,4.80
2019-05-30T01:02:37.628Z,5.63
2019-05-30T01:05:08.372Z,5.70
2019-05-30T01:07:36.993Z,4.73
2019-05-30T01:10:09.075Z,5.03
2019-05-30T01:12:37.913Z,4.93
2019-05-30T01:15:09.770Z,4.60
2019-05-30T01:17:38.409Z,5.17
2019-05-30T01:20:07.924Z,4.53
2019-05-30T01:22:36.699Z,4.80
2019-05-30T01:25:08.377Z,4.67
2019-05-30T01:27:37.710Z,5.10
2019-05-30T01:30:08.054Z,5.00
2019-05-30T01:32:36.787Z,4.90
2019-05-30T01:35:06.287Z,5.40
2019-05-30T01:37:34.915Z,5.50
2019-05-30T01:40:04.139Z,5.50
2019-05-30T01:42:33.058Z,6.33
2019-05-30T01:45:02.492Z,5.33
2019-05-30T01:47:31.337Z,4.80
2019-05-30T01:50:00.380Z,5.63
2019-05-30T01:52:29.261Z,5.10
2019-05-30T01:54:58.521Z,5.30
2019-05-30T01:57:27.317Z,4.83
2019-05-30T01:59:55.940Z,6.00
2019-05-30T02:02:24.580Z,6.00
2019-05-30T02:04:53.159Z,6.00
2019-05-30T02:07:21.801Z,4.80
2019-05-30T02:09:50.393Z,5.27
2019-05-30T02:12:19.050Z,5.07
2019-05-30T02:14:47.606Z,5.10
2019-05-30T02:17:16.236Z,4.77
2019-05-30T02:19:44.798Z,5.20
2019-05-30T02:22:13.530Z,4.80
2019-05-30T02:24:42.133Z,5.17
2019-05-30T02:27:10.759Z,4.60
2019-05-30T02:29:39.323Z,4.37
2019-05-30T02:32:09.215Z,4.10
2019-05-30T02:34:38.271Z,4.30
2019-05-30T02:37:08.395Z,5.03
2019-05-30T02:39:37.229Z,4.30
2019-05-30T02:42:07.414Z,4.17
2019-05-30T02:44:36.189Z,4.00
2019-05-30T02:47:05.612Z,3.80
2019-05-30T02:49:35.538Z,4.20
2019-05-30T02:52:04.890Z,3.97
2019-05-30T02:54:34.600Z,4.40
2019-05-30T02:57:03.561Z,4.30
2019-05-30T02:59:32.270Z,4.70
2019-05-30T03:02:04.508Z,4.47
2019-05-30T03:04:31.123Z,4.30
2019-05-30T03:07:01.841Z,5.17
2019-05-30T03:09:30.125Z,3.90
2019-05-30T03:11:58.768Z,3.80
2019-05-30T03:14:27.408Z,4.37
2019-05-30T03:16:56.135Z,4.03
2019-05-30T03:19:24.769Z,3.70
2019-05-30T03:21:53.429Z,4.30
2019-05-30T03:24:22.063Z,4.27
2019-05-30T03:26:50.815Z,4.27
2019-05-30T03:29:19.375Z,3.90
2019-05-30T03:31:48.489Z,4.70
2019-05-30T03:34:26.929Z,3.97
2019-05-30T03:36:47.536Z,4.03
2019-05-30T03:39:16.179Z,4.27
2019-05-30T03:41:44.961Z,4.13
2019-05-30T03:44:15.517Z,4.60
2019-05-30T03:46:50.017Z,4.67
2019-05-30T03:49:21.804Z,4.60
2019-05-30T03:51:51.251Z,4.47
2019-05-30T03:54:20.139Z,4.10
2019-05-30T03:57:08.800Z,4.43
2019-05-30T03:59:49.566Z,4.50
2019-05-30T04:02:21.493Z,4.23
2019-05-30T04:05:00.804Z,4.80
2019-05-30T04:07:30.907Z,4.30
2019-05-30T04:10:00.944Z,3.53
2019-05-30T04:12:41.731Z,4.20
2019-05-30T04:15:25.571Z,3.70
2019-05-30T04:17:54.211Z,3.90
2019-05-30T04:20:23.303Z,4.30
2019-05-30T04:22:52.179Z,3.47
2019-05-30T04:25:20.774Z,3.73
2019-05-30T04:27:49.423Z,4.03
2019-05-30T04:30:18.505Z,3.63
2019-05-30T04:32:50.319Z,4.00
2019-05-30T04:35:19.081Z,3.87
2019-05-30T04:37:47.665Z,3.97
2019-05-30T04:40:17.631Z,3.60
2019-05-30T04:42:46.950Z,4.20
2019-05-30T04:45:16.045Z,3.70
2019-05-30T04:47:46.306Z,3.60
2019-05-30T04:50:16.358Z,4.10
2019-05-30T04:52:45.337Z,4.17
2019-05-30T04:55:16.037Z,4.00
2019-05-30T04:57:44.267Z,3.80
2019-05-30T05:00:15.080Z,4.53
2019-05-30T05:02:43.569Z,3.80
2019-05-30T05:05:13.308Z,3.43
2019-05-30T05:07:42.565Z,3.90
2019-05-30T05:10:12.104Z,4.13
2019-05-30T05:12:40.953Z,3.70
2019-05-30T05:15:10.387Z,3.40
2019-05-30T05:17:38.984Z,3.80
2019-05-30T05:20:08.473Z,4.00
2019-05-30T05:22:37.088Z,4.57
2019-05-30T05:25:08.875Z,4.60
2019-05-30T05:27:37.519Z,4.33
2019-05-30T05:30:10.208Z,4.30
2019-05-30T05:32:38.800Z,4.30
2019-05-30T05:35:07.671Z,3.97
2019-05-30T05:37:36.341Z,4.10
2019-05-30T05:40:08.114Z,4.27
2019-05-30T05:42:36.747Z,3.80
2019-05-30T05:45:07.296Z,4.40
2019-05-30T05:47:35.912Z,4.43
2019-05-30T05:50:05.634Z,4.47
2019-05-30T05:52:34.333Z,4.60
2019-05-30T05:55:03.057Z,4.60
2019-05-30T05:57:31.762Z,4.30
2019-05-30T06:00:00.380Z,4.60
2019-05-30T06:02:29.099Z,4.03
2019-05-30T06:04:57.681Z,4.37
2019-05-30T06:07:26.458Z,4.50
2019-05-30T06:09:55.140Z,3.80
2019-05-30T06:12:26.457Z,3.93
2019-05-30T06:14:55.130Z,3.83
2019-05-30T06:17:23.705Z,4.03
2019-05-30T06:19:52.389Z,3.63
2019-05-30T06:22:21.478Z,4.00
2019-05-30T06:24:50.094Z,3.80
2019-05-30T06:27:20.051Z,3.60
2019-05-30T06:29:48.832Z,3.40
2019-05-30T06:32:18.552Z,3.60
2019-05-30T06:34:48.966Z,3.17
2019-05-30T06:37:17.520Z,3.40
2019-05-30T06:39:46.257Z,3.00
2019-05-30T06:42:14.820Z,3.23
2019-05-30T06:44:43.490Z,3.17
2019-05-30T06:47:12.080Z,3.20
2019-05-30T06:49:40.848Z,2.80
2019-05-30T06:52:09.421Z,3.00
2019-05-30T06:54:38.061Z,2.90
2019-05-30T06:57:06.720Z,2.40
2019-05-30T06:59:35.410Z,2.30
2019-05-30T07:02:04.116Z,2.50
2019-05-30T07:04:50.181Z,2.70
2019-05-30T07:07:05.957Z,2.03
2019-05-30T07:09:33.403Z,2.13
2019-05-30T07:12:01.998Z,2.20
2019-05-30T07:14:31.456Z,2.13
2019-05-30T07:17:00.267Z,2.10
2019-05-30T07:19:29.546Z,2.20
2019-05-30T07:21:58.457Z,1.87
2019-05-30T07:24:27.777Z,1.90
2019-05-30T07:26:56.583Z,1.90
2019-05-30T07:29:25.801Z,1.83
2019-05-30T07:31:54.493Z,1.63
2019-05-30T07:34:23.918Z,2.40
2019-05-30T07:36:52.710Z,1.97
2019-05-30T07:39:21.366Z,1.70
2019-05-30T07:42:05.223Z,1.60
2019-05-30T07:44:20.255Z,1.70
2019-05-30T07:46:48.831Z,1.40
2019-05-30T07:49:17.554Z,1.60
2019-05-30T07:51:46.180Z,1.57
2019-05-30T07:54:14.863Z,1.80
2019-05-30T07:56:43.423Z,1.43
2019-05-30T07:59:12.091Z,2.77
2019-05-30T08:01:40.674Z,2.13
2019-05-30T08:04:09.312Z,1.90
2019-05-30T08:06:37.996Z,3.47
2019-05-30T08:09:07.192Z,1.40
2019-05-30T08:11:37.426Z,1.80
2019-05-30T08:14:06.113Z,1.53
2019-05-30T08:16:35.488Z,1.87
2019-05-30T08:19:04.529Z,1.50
2019-05-30T08:21:34.211Z,1.50
2019-05-30T08:24:03.035Z,1.50
2019-05-30T08:26:32.071Z,1.30
2019-05-30T08:29:00.823Z,1.73
2019-05-30T08:31:30.401Z,1.33
2019-05-30T08:33:59.123Z,1.20
2019-05-30T08:36:28.762Z,1.40
2019-05-30T08:38:57.539Z,1.50
2019-05-30T08:41:26.170Z,1.40
2019-05-30T08:43:54.830Z,1.40
2019-05-30T08:46:23.400Z,1.50
2019-05-30T08:48:52.109Z,1.37
2019-05-30T08:51:20.681Z,1.40
2019-05-30T08:53:49.331Z,1.70
2019-05-30T08:56:17.910Z,1.20
2019-05-30T08:58:46.570Z,1.73
2019-05-30T09:01:15.153Z,1.57
2019-05-30T09:03:44.174Z,1.37
2019-05-30T09:06:13.014Z,1.50
2019-05-30T09:08:42.167Z,1.07
2019-05-30T09:11:10.972Z,1.20
2019-05-30T09:13:40.430Z,1.20
2019-05-30T09:16:09.214Z,1.30
2019-05-30T09:18:39.517Z,1.20
2019-05-30T09:21:08.223Z,1.47
2019-05-30T09:23:38.276Z,1.50
2019-05-30T09:26:07.388Z,1.80
2019-05-30T09:28:36.009Z,1.30
2019-05-30T09:31:04.658Z,1.50
2019-05-30T09:33:33.332Z,1.20
2019-05-30T09:36:12.886Z,1.30
2019-05-30T09:38:32.302Z,1.10
2019-05-30T09:41:00.934Z,1.53
2019-05-30T09:43:29.546Z,1.27
2019-05-30T09:45:59.736Z,1.10
2019-05-30T09:48:28.328Z,1.20
2019-05-30T09:50:56.946Z,1.20
2019-05-30T09:53:25.600Z,1.60
2019-05-30T09:55:54.269Z,1.10
2019-05-30T09:58:22.924Z,1.20
2019-05-30T10:00:52.272Z,1.70
2019-05-30T10:03:21.115Z,1.13
2019-05-30T10:05:50.572Z,1.27
2019-05-30T10:08:19.399Z,1.43
2019-05-30T10:10:49.444Z,0.90
2019-05-30T10:13:18.354Z,1.40
2019-05-30T10:15:47.101Z,2.67
2019-05-30T10:18:16.933Z,1.43
2019-05-30T10:20:46.290Z,1.37
2019-05-30T10:23:15.896Z,1.20
2019-05-30T10:25:44.921Z,1.00
2019-05-30T10:28:14.671Z,1.30
2019-05-30T10:30:51.791Z,1.20
2019-05-30T10:33:16.025Z,1.30
2019-05-30T10:35:45.735Z,1.17
2019-05-30T10:38:14.904Z,1.23
2019-05-30T10:40:43.473Z,1.10
2019-05-30T10:43:12.093Z,1.30
2019-05-30T10:45:40.746Z,1.27
2019-05-30T10:48:09.439Z,1.10
2019-05-30T10:50:38.031Z,1.03
2019-05-30T10:53:06.686Z,1.10
2019-05-30T10:55:35.861Z,1.50
2019-05-30T10:58:04.630Z,1.13
2019-05-30T11:00:55.246Z,1.00
2019-05-30T11:03:25.093Z,1.10
2019-05-30T11:06:11.925Z,1.00
2019-05-30T11:08:41.215Z,0.90
2019-05-30T11:11:09.810Z,1.10
2019-05-30T11:13:38.496Z,1.37
2019-05-30T11:16:07.132Z,1.43
2019-05-30T11:18:35.841Z,1.60
2019-05-30T11:21:04.557Z,1.20
2019-05-30T11:23:33.256Z,1.20
2019-05-30T11:26:01.832Z,1.20
2019-05-30T11:28:30.584Z,1.50
2019-05-30T11:30:59.146Z,1.40
2019-05-30T11:33:27.798Z,1.37
2019-05-30T11:35:57.031Z,1.40
2019-05-30T11:38:25.936Z,1.47
2019-05-30T11:40:55.508Z,1.10
2019-05-30T11:43:24.215Z,1.70
2019-05-30T11:45:53.570Z,1.50
2019-05-30T11:48:22.502Z,1.53
2019-05-30T11:50:52.019Z,1.50
2019-05-30T11:53:20.751Z,1.53
2019-05-30T11:55:50.136Z,1.20
2019-05-30T11:58:19.820Z,1.30
2019-05-30T12:00:50.191Z,1.60
2019-05-30T12:03:18.954Z,1.63
2019-05-30T12:05:47.522Z,1.47
2019-05-30T12:08:16.139Z,1.60
2019-05-30T12:10:44.695Z,1.43
2019-05-30T12:13:13.326Z,1.20
2019-05-30T12:15:41.953Z,1.80
2019-05-30T12:18:10.610Z,1.30
2019-05-30T12:20:39.195Z,1.30
2019-05-30T12:23:07.893Z,1.50
2019-05-30T12:25:36.453Z,1.63
2019-05-30T12:28:05.245Z,1.33
2019-05-30T12:30:33.884Z,1.40
2019-05-30T12:33:02.735Z,1.43
2019-05-30T12:35:31.357Z,1.70
2019-05-30T12:38:04.516Z,1.53
2019-05-30T12:40:30.332Z,1.50
2019-05-30T12:42:59.890Z,1.50
2019-05-30T12:45:29.299Z,1.70
2019-05-30T12:47:59.163Z,1.57
2019-05-30T12:50:28.137Z,1.30
2019-05-30T12:52:57.616Z,1.53
2019-05-30T12:55:26.250Z,1.43
2019-05-30T12:57:54.921Z,1.80
2019-05-30T13:00:26.718Z,1.87
2019-05-30T13:02:55.404Z,2.57
2019-05-30T13:05:23.993Z,1.60
2019-05-30T13:07:52.691Z,1.80
2019-05-30T13:10:21.390Z,2.17
2019-05-30T13:12:50.054Z,1.80
2019-05-30T13:15:19.205Z,1.73
2019-05-30T13:17:47.899Z,2.10
2019-05-30T13:20:16.925Z,1.77
2019-05-30T13:22:45.525Z,1.70
2019-05-30T13:25:16.753Z,1.40
2019-05-30T13:27:45.447Z,1.30
2019-05-30T13:30:14.502Z,1.80
2019-05-30T13:32:43.155Z,1.70
2019-05-30T13:35:13.281Z,1.40
2019-05-30T13:37:42.210Z,1.60
2019-05-30T13:40:24.118Z,1.80
2019-05-30T13:42:42.723Z,1.80
2019-05-30T13:45:11.824Z,1.23
2019-05-30T13:47:40.495Z,1.60
2019-05-30T13:50:13.908Z,1.27
2019-05-30T13:52:41.572Z,1.47
2019-05-30T13:55:11.885Z,1.37
2019-05-30T13:57:40.519Z,1.50
2019-05-30T14:00:10.599Z,2.00
2019-05-30T14:02:39.901Z,1.67
2019-05-30T14:05:10.317Z,1.50
2019-05-30T14:07:39.362Z,1.30
2019-05-30T14:10:10.700Z,1.50
2019-05-30T14:12:39.708Z,1.87
2019-05-30T14:15:14.034Z,1.83
2019-05-30T14:17:41.708Z,1.50
2019-05-30T14:20:11.504Z,1.57
2019-05-30T14:22:40.533Z,2.63
2019-05-30T14:25:10.012Z,1.23
2019-05-30T14:27:39.028Z,1.20
2019-05-30T14:30:08.901Z,1.60
2019-05-30T14:32:38.032Z,1.63
2019-05-30T14:35:11.676Z,1.37
2019-05-30T14:37:40.389Z,1.70
2019-05-30T14:40:11.388Z,1.70
2019-05-30T14:42:40.026Z,1.60
2019-05-30T14:45:10.373Z,2.20
2019-05-30T14:47:39.377Z,1.43
2019-05-30T14:50:09.288Z,1.80
2019-05-30T14:52:37.899Z,2.20
2019-05-30T14:55:09.060Z,1.70
2019-05-30T14:57:38.042Z,1.50
2019-05-30T15:00:09.501Z,1.90
2019-05-30T15:02:38.504Z,1.63
2019-05-30T15:05:07.839Z,1.70
2019-05-30T15:07:36.449Z,1.90
2019-05-30T15:10:08.776Z,1.80
2019-05-30T15:12:37.577Z,1.67
2019-05-30T15:15:08.005Z,1.50
2019-05-30T15:17:37.520Z,1.90
2019-05-30T15:20:07.687Z,1.90
2019-05-30T15:22:36.289Z,2.20
2019-05-30T15:25:07.846Z,2.03
2019-05-30T15:27:37.157Z,2.00
2019-05-30T15:30:08.512Z,1.60
2019-05-30T15:32:37.144Z,1.60
2019-05-30T15:35:06.760Z,1.93
2019-05-30T15:37:35.736Z,1.90
2019-05-30T15:40:09.270Z,1.70
2019-05-30T15:42:37.955Z,2.07
2019-05-30T15:45:10.070Z,1.73
2019-05-30T15:47:38.991Z,2.10
2019-05-30T15:50:08.340Z,2.33
2019-05-30T15:52:37.657Z,1.90
2019-05-30T15:55:09.099Z,1.80
2019-05-30T15:57:37.922Z,1.60
2019-05-30T16:00:12.101Z,1.90
2019-05-30T16:02:41.346Z,1.70
2019-05-30T16:05:10.718Z,1.80
2019-05-30T16:07:39.586Z,1.83
2019-05-30T16:10:08.584Z,2.30
2019-05-30T16:12:37.555Z,2.10
2019-05-30T16:15:07.269Z,1.97
2019-05-30T16:17:36.006Z,1.83
2019-05-30T16:20:06.817Z,2.63
2019-05-30T16:22:35.491Z,3.00
2019-05-30T16:25:07.237Z,2.00
2019-05-30T16:27:35.885Z,2.17
2019-05-30T16:30:09.877Z,1.80
2019-05-30T16:32:38.797Z,2.10
2019-05-30T16:35:08.434Z,1.87
2019-05-30T16:37:37.040Z,1.57
2019-05-30T16:40:10.074Z,2.20
2019-05-30T16:42:38.661Z,2.10
2019-05-30T16:45:08.894Z,2.37
2019-05-30T16:47:37.815Z,1.87
2019-05-30T16:50:08.567Z,2.23
2019-05-30T16:52:37.348Z,2.27
2019-05-30T16:55:07.009Z,2.10
2019-05-30T16:57:35.661Z,3.37
2019-05-30T17:00:10.342Z,1.90
2019-05-30T17:02:38.966Z,1.93
2019-05-30T17:05:07.896Z,2.00
2019-05-30T17:07:36.848Z,2.33
2019-05-30T17:10:22.203Z,2.20
2019-05-30T17:12:41.445Z,2.10
2019-05-30T17:15:10.450Z,1.97
2019-05-30T17:17:39.103Z,2.30
2019-05-30T17:20:08.796Z,2.10
2019-05-30T17:22:37.467Z,2.00
2019-05-30T17:25:06.981Z,2.00
2019-05-30T17:27:35.892Z,2.03
2019-05-30T17:30:06.353Z,2.07
2019-05-30T17:32:35.012Z,2.10
2019-05-30T17:35:05.741Z,2.30
2019-05-30T17:37:34.548Z,2.20
2019-05-30T17:40:04.583Z,2.00
2019-05-30T17:42:33.296Z,1.80
2019-05-30T17:45:01.881Z,1.80
2019-05-30T17:47:30.496Z,2.30
2019-05-30T17:49:59.059Z,2.30
2019-05-30T17:52:27.960Z,1.67
2019-05-30T17:54:56.716Z,2.17
2019-05-30T17:57:26.046Z,1.40
2019-05-30T17:59:54.577Z,2.00
2019-05-30T18:02:24.342Z,1.73
2019-05-30T18:04:53.241Z,1.50
2019-05-30T18:07:22.777Z,1.53
2019-05-30T18:09:53.324Z,1.60
2019-05-30T18:12:23.414Z,1.57
2019-05-30T18:14:51.975Z,1.60
2019-05-30T18:17:25.134Z,1.43
2019-05-30T18:19:53.879Z,1.40
2019-05-30T18:22:23.390Z,1.70
2019-05-30T18:24:52.073Z,1.47
2019-05-30T18:27:21.704Z,2.00
2019-05-30T18:29:50.481Z,1.43
2019-05-30T18:32:19.042Z,1.70
2019-05-30T18:34:47.665Z,1.63
2019-05-30T18:37:16.332Z,1.60
2019-05-30T18:39:44.965Z,1.40
2019-05-30T18:42:13.548Z,1.50
2019-05-30T18:44:42.221Z,1.40
2019-05-30T18:47:10.819Z,1.30
2019-05-30T18:49:39.457Z,1.50
2019-05-30T18:52:08.113Z,2.03
2019-05-30T18:54:36.931Z,2.00
2019-05-30T18:57:06.458Z,1.83
2019-05-30T18:59:35.096Z,1.63
2019-05-30T19:02:03.750Z,2.07
2019-05-30T19:04:33.705Z,1.70
2019-05-30T19:07:02.456Z,2.27
2019-05-30T19:09:31.922Z,1.90
2019-05-30T19:12:01.515Z,1.90
2019-05-30T19:14:32.482Z,1.60
2019-05-30T19:17:00.477Z,1.77
2019-05-30T19:19:29.664Z,1.70
2019-05-30T19:21:58.462Z,2.20
2019-05-30T19:24:28.141Z,1.93
2019-05-30T19:26:57.078Z,1.90
2019-05-30T19:29:26.603Z,1.90
2019-05-30T19:31:55.231Z,1.80
2019-05-30T19:34:23.844Z,2.00
2019-05-30T19:36:52.419Z,1.90
2019-05-30T19:39:21.070Z,1.93
2019-05-30T19:41:56.672Z,2.20
2019-05-30T19:44:19.968Z,2.00
2019-05-30T19:46:48.533Z,1.93
2019-05-30T19:49:17.161Z,2.00
2019-05-30T19:51:45.720Z,2.27
2019-05-30T19:54:14.384Z,1.93
2019-05-30T19:56:42.948Z,2.10
2019-05-30T19:59:11.579Z,2.80
2019-05-30T20:01:40.207Z,3.33
2019-05-30T20:04:08.847Z,3.43
2019-05-30T20:06:38.683Z,2.13
2019-05-30T20:09:07.757Z,2.40
2019-05-30T20:11:37.300Z,2.10
2019-05-30T20:14:06.199Z,2.23
2019-05-30T20:16:35.729Z,2.47
2019-05-30T20:19:04.499Z,2.20
2019-05-30T20:21:33.755Z,2.33
2019-05-30T20:24:02.465Z,2.50
2019-05-30T20:26:32.378Z,2.60
2019-05-30T20:29:01.127Z,2.50
2019-05-30T20:31:29.729Z,2.60
2019-05-30T20:33:58.355Z,2.10
2019-05-30T20:36:26.919Z,2.67
2019-05-30T20:38:55.543Z,2.10
2019-05-30T20:41:24.224Z,2.17
2019-05-30T20:43:52.813Z,2.13
2019-05-30T20:46:23.422Z,2.23
2019-05-30T20:48:51.789Z,2.47
2019-05-30T20:51:21.371Z,2.50
2019-05-30T20:53:50.646Z,2.50
2019-05-30T20:56:19.234Z,2.10
2019-05-30T20:58:47.950Z,2.70
2019-05-30T21:01:16.513Z,2.67
2019-05-30T21:03:45.904Z,2.53
2019-05-30T21:06:14.669Z,2.33
2019-05-30T21:08:43.379Z,2.00
2019-05-30T21:11:12.913Z,2.50
2019-05-30T21:13:42.293Z,2.43
2019-05-30T21:16:11.104Z,2.53
2019-05-30T21:18:40.308Z,2.80
2019-05-30T21:21:08.894Z,2.80
2019-05-30T21:23:38.301Z,3.43
2019-05-30T21:26:06.982Z,3.93
2019-05-30T21:28:36.622Z,4.50
2019-05-30T21:31:05.525Z,4.47
2019-05-30T21:33:34.335Z,4.77
2019-05-30T21:36:03.312Z,4.60
2019-05-30T21:38:31.994Z,4.63
2019-05-30T21:41:00.565Z,4.03
2019-05-30T21:43:29.218Z,3.97
2019-05-30T21:45:57.803Z,4.60
2019-05-30T21:48:26.395Z,4.97
2019-05-30T21:50:55.002Z,4.70
2019-05-30T21:53:23.680Z,4.10
2019-05-30T21:55:52.264Z,4.87
2019-05-30T21:58:20.853Z,4.00
2019-05-30T22:01:01.306Z,4.43
2019-05-30T22:03:29.926Z,4.70
2019-05-30T22:05:58.523Z,10.77
2019-05-30T22:08:27.138Z,6.40
2019-05-30T22:10:55.740Z,5.90
2019-05-30T22:13:24.449Z,5.80
2019-05-30T22:15:53.034Z,6.07
2019-05-30T22:18:21.744Z,5.30
2019-05-30T22:20:50.355Z,5.50
2019-05-30T22:23:18.959Z,5.63
2019-05-30T22:25:48.236Z,5.33
2019-05-30T22:28:17.016Z,5.60
2019-05-30T22:30:46.342Z,5.10
2019-05-30T22:33:15.215Z,5.53
2019-05-30T22:35:44.782Z,6.57
2019-05-30T22:38:13.640Z,6.47
2019-05-30T22:40:42.296Z,6.10
2019-05-30T22:43:24.555Z,6.70
2019-05-30T22:45:41.240Z,8.20
